메인 페이지
METAR-TAF:

METAR-TAF

공항 :

케언스 공항

케언스, 오스트레일리아

위도: 16-53S, 경도: 145-45E, 고도: 3m

현재 날씨관측

예보는 12분 전, 03:00시(UTC)에 발표되었습니다.
남남동17kt
온도 27°C
습도 58%
기압 1015 hPa
시정 10km 이상
고도 3000ft 상공 구름 조금
고도 4700ft 상공 구름 보통
고도 8000ft 상공 구름 많음

METAR: YBCS 210300Z 15017KT 9999 FEW030 SCT047 BKN080 27/18 Q1015

시각: 13:12 (03:12 UTC)

예보

예보는 3 시간 56분 전, 23:16시(UTC)에 발표되었습니다.
예보 대상 시간: 21일 00시부터 21일 24시까지 (UTC)
남동18kt
시정 10km 이상
고도 3000ft 상공 구름 보통
고도 8000ft 상공 구름 많음
21일 0800시부터 (UTC)
남남동13kt
시정 10km 이상
고도 2500ft 상공 구름 조금
고도 4000ft 상공 구름 보통
21일 2300시부터 (UTC)
남동16kt
시정 10km 이상
고도 3000ft 상공 구름 보통

TAF: YBCS 202316Z 2100/2124 13018KT 9999 SCT030 BKN080 FM210800 16013KT 9999 FEW025 SCT040 FM212300 13016KT 9999 SCT030

4,000개 이상의 공항 관측 자료 및 예보 (METAR 및 TAF 보고).

지도상에서 검색 가능한 기상관측소가 노란 점과 빨간 점으로 표시되어 있습니다.

기상관측소 명을 보려면 표시 위로 마우스를 이동하세요.

날씨 관측과 예보를 보려면 클릭하세요.

지도 변경 : 확대하려면 엑스 표시가 있는 녹색 버튼, 축소하려면 빼기 표시가 있는 녹색 버튼, 다음 페이지의 지도를 보려면 녹색 화살표를 클릭하세요.


METAR-TAF: